Etusivu
METAR-TAF:

METAR-TAF

Lentoasemat :

Coeur d'Alene, Idaho, Yhdysvallat

Leveyspiiri: 47-46N, Pituuspiiri: 116-49W, korkeus merenpinnasta: 707 m

Tämänhetkinen sää

Tämä raportti tehtiin 32 minuuttia sitten, kello 10.56 UTC
Tuuli 4 kn koillisesta
Lämpötila 7°C
Kosteus 70%
Ilmanpaine 1019 hPa
Näkyvyys: 16.1 km
selkeää

METAR: KCOE 201056Z AUTO 05004KT 10SM CLR 07/02 A3008 RMK AO2 SLP198 T00720022

Aika: 04:28 (11:28 UTC)

Sääennuste

Tämä raportti tehtiin 6 tuntia ja 8 minuuttia sitten, kello 05.20 UTC
Ennuste voimassa 20. päivästä klo 06 UTC - 21. päivään klo 06 UTC
Tuuli 4 kn idästä/koillisesta
Näkyvyys: 10 km
selkeää
From 20. päivästä klo 2100 UTC
Tuuli 6 kn pohjoisesta
Näkyvyys: 10 km
Hajanaisia pilviä 8000 ft:n korkeudessa
Hajanaisia pilviä 25000 ft:n korkeudessa
From 21. päivästä klo 0400 UTC
Tuuli 4 kn koillisesta
Näkyvyys: 10 km
selkeää

TAF: KCOE 200520Z 2006/2106 06004KT P6SM SKC FM202100 35006KT P6SM SCT080 SCT250 FM210400 04004KT P6SM SKC

Säähavainnot ja -ennusteet yli 4000 lentoasemalta (METAR- ja TAF-raportit).

Käytössä olevat sääasemat on merkitty karttaan keltaisilla ja punaisilla pisteillä.

Aseta hiiri pisteen päälle nähdäksesi sääaseman nimen.

Klikkaa sitten nähdäksesi säähavainnot ja -ennusteet.

Kartan vaihtaminen: klikkaa mustalla rastilla varustettuja vihreitä pisteitä, niin voit zoomata sisään; viivalla varustettua vihreää pistettä, niin voit zoomata ulos tai vihreitä nuolia, niin pääset viereisille kartoille.


METAR-TAF: